sensor_id;sensor_type;location;lat;lon;timestamp;P1;P2;P0
47705;PMS5003;33471;52.104;1.318;2023-04-29T00:00:38;36;34;
47705;PMS5003;33471;52.104;1.318;2023-04-29T00:03:05;40;33;
47705;PMS5003;33471;52.104;1.318;2023-04-29T00:05:32;29;27;
47705;PMS5003;33471;52.104;1.318;2023-04-29T00:07:59;33;32;
47705;PMS5003;33471;52.104;1.318;2023-04-29T00:10:27;33;31;
47705;PMS5003;33471;52.104;1.318;2023-04-29T00:12:54;37;35;
47705;PMS5003;33471;52.104;1.318;2023-04-29T00:15:22;34;30;
47705;PMS5003;33471;52.104;1.318;2023-04-29T00:17:48;34;30;
47705;PMS5003;33471;52.104;1.318;2023-04-29T00:20:16;37;34;
47705;PMS5003;33471;52.104;1.318;2023-04-29T00:22:44;32;31;
47705;PMS5003;33471;52.104;1.318;2023-04-29T00:25:12;29;26;
47705;PMS5003;33471;52.104;1.318;2023-04-29T00:27:38;48;43;
47705;PMS5003;33471;52.104;1.318;2023-04-29T00:30:06;31;30;
47705;PMS5003;33471;52.104;1.318;2023-04-29T00:32:34;31;29;
47705;PMS5003;33471;52.104;1.318;2023-04-29T00:35:00;39;33;
47705;PMS5003;33471;52.104;1.318;2023-04-29T00:37:28;31;31;
47705;PMS5003;33471;52.104;1.318;2023-04-29T00:39:55;38;34;
47705;PMS5003;33471;52.104;1.318;2023-04-29T00:42:22;29;29;
47705;PMS5003;33471;52.104;1.318;2023-04-29T00:44:50;39;35;
47705;PMS5003;33471;52.104;1.318;2023-04-29T00:47:17;28;25;
47705;PMS5003;33471;52.104;1.318;2023-04-29T00:49:45;44;41;
47705;PMS5003;33471;52.104;1.318;2023-04-29T00:52:13;38;33;
47705;PMS5003;33471;52.104;1.318;2023-04-29T00:54:41;35;33;
47705;PMS5003;33471;52.104;1.318;2023-04-29T00:57:09;33;33;
47705;PMS5003;33471;52.104;1.318;2023-04-29T00:59:36;37;35;
47705;PMS5003;33471;52.104;1.318;2023-04-29T01:02:04;39;34;
47705;PMS5003;33471;52.104;1.318;2023-04-29T01:04:31;33;30;
47705;PMS5003;33471;52.104;1.318;2023-04-29T01:07:00;36;32;
47705;PMS5003;33471;52.104;1.318;2023-04-29T01:09:38;30;30;
47705;PMS5003;33471;52.104;1.318;2023-04-29T01:12:19;34;31;
47705;PMS5003;33471;52.104;1.318;2023-04-29T01:14:53;33;32;
47705;PMS5003;33471;52.104;1.318;2023-04-29T01:17:30;37;37;
47705;PMS5003;33471;52.104;1.318;2023-04-29T01:20:05;38;32;
47705;PMS5003;33471;52.104;1.318;2023-04-29T01:22:34;29;28;
47705;PMS5003;33471;52.104;1.318;2023-04-29T01:25:01;42;36;
47705;PMS5003;33471;52.104;1.318;2023-04-29T01:27:29;35;30;
47705;PMS5003;33471;52.104;1.318;2023-04-29T01:30:01;40;37;
47705;PMS5003;33471;52.104;1.318;2023-04-29T01:32:39;36;30;
47705;PMS5003;33471;52.104;1.318;2023-04-29T01:35:24;38;34;
47705;PMS5003;33471;52.104;1.318;2023-04-29T01:38:03;32;29;
47705;PMS5003;33471;52.104;1.318;2023-04-29T01:40:44;40;35;
47705;PMS5003;33471;52.104;1.318;2023-04-29T01:43:15;40;36;
47705;PMS5003;33471;52.104;1.318;2023-04-29T01:45:44;39;37;
47705;PMS5003;33471;52.104;1.318;2023-04-29T01:48:11;45;40;
47705;PMS5003;33471;52.104;1.318;2023-04-29T01:50:39;33;31;
47705;PMS5003;33471;52.104;1.318;2023-04-29T01:53:07;37;35;
47705;PMS5003;33471;52.104;1.318;2023-04-29T01:55:35;33;28;
47705;PMS5003;33471;52.104;1.318;2023-04-29T01:58:02;40;38;
47705;PMS5003;33471;52.104;1.318;2023-04-29T02:00:29;42;38;
47705;PMS5003;33471;52.104;1.318;2023-04-29T02:02:56;43;35;
47705;PMS5003;33471;52.104;1.318;2023-04-29T02:05:23;35;30;
47705;PMS5003;33471;52.104;1.318;2023-04-29T02:07:50;41;39;
47705;PMS5003;33471;52.104;1.318;2023-04-29T02:10:17;41;40;
47705;PMS5003;33471;52.104;1.318;2023-04-29T02:12:44;37;34;
47705;PMS5003;33471;52.104;1.318;2023-04-29T02:15:12;38;34;
47705;PMS5003;33471;52.104;1.318;2023-04-29T02:17:39;40;35;
47705;PMS5003;33471;52.104;1.318;2023-04-29T02:20:06;44;37;
47705;PMS5003;33471;52.104;1.318;2023-04-29T02:22:34;37;31;
47705;PMS5003;33471;52.104;1.318;2023-04-29T02:25:02;33;29;
47705;PMS5003;33471;52.104;1.318;2023-04-29T02:27:30;39;38;
47705;PMS5003;33471;52.104;1.318;2023-04-29T02:29:57;33;32;
47705;PMS5003;33471;52.104;1.318;2023-04-29T02:32:24;41;39;
47705;PMS5003;33471;52.104;1.318;2023-04-29T02:34:51;35;32;
47705;PMS5003;33471;52.104;1.318;2023-04-29T02:37:18;38;32;
47705;PMS5003;33471;52.104;1.318;2023-04-29T02:39:46;29;29;
47705;PMS5003;33471;52.104;1.318;2023-04-29T02:42:13;45;38;
47705;PMS5003;33471;52.104;1.318;2023-04-29T02:44:40;38;33;
47705;PMS5003;33471;52.104;1.318;2023-04-29T02:47:07;36;35;
47705;PMS5003;33471;52.104;1.318;2023-04-29T02:49:35;35;33;
47705;PMS5003;33471;52.104;1.318;2023-04-29T02:52:02;30;30;
47705;PMS5003;33471;52.104;1.318;2023-04-29T02:54:28;35;33;
47705;PMS5003;33471;52.104;1.318;2023-04-29T02:56:55;33;30;
47705;PMS5003;33471;52.104;1.318;2023-04-29T02:59:22;36;32;
47705;PMS5003;33471;52.104;1.318;2023-04-29T03:01:50;38;32;
47705;PMS5003;33471;52.104;1.318;2023-04-29T03:04:17;30;30;
47705;PMS5003;33471;52.104;1.318;2023-04-29T03:06:44;33;31;
47705;PMS5003;33471;52.104;1.318;2023-04-29T03:09:11;32;30;
47705;PMS5003;33471;52.104;1.318;2023-04-29T03:11:38;28;27;
47705;PMS5003;33471;52.104;1.318;2023-04-29T03:14:05;39;31;
47705;PMS5003;33471;52.104;1.318;2023-04-29T03:16:32;38;33;
47705;PMS5003;33471;52.104;1.318;2023-04-29T03:18:59;32;31;
47705;PMS5003;33471;52.104;1.318;2023-04-29T03:21:26;34;33;
47705;PMS5003;33471;52.104;1.318;2023-04-29T03:23:53;33;33;
47705;PMS5003;33471;52.104;1.318;2023-04-29T03:26:20;32;31;
47705;PMS5003;33471;52.104;1.318;2023-04-29T03:28:47;39;35;
47705;PMS5003;33471;52.104;1.318;2023-04-29T03:31:14;38;34;
47705;PMS5003;33471;52.104;1.318;2023-04-29T03:33:42;33;30;
47705;PMS5003;33471;52.104;1.318;2023-04-29T03:36:09;45;38;
47705;PMS5003;33471;52.104;1.318;2023-04-29T03:38:36;37;31;
47705;PMS5003;33471;52.104;1.318;2023-04-29T03:41:03;31;31;
47705;PMS5003;33471;52.104;1.318;2023-04-29T03:43:31;34;30;
47705;PMS5003;33471;52.104;1.318;2023-04-29T03:45:58;36;34;
47705;PMS5003;33471;52.104;1.318;2023-04-29T03:48:25;36;35;
47705;PMS5003;33471;52.104;1.318;2023-04-29T03:50:52;34;27;
47705;PMS5003;33471;52.104;1.318;2023-04-29T03:53:19;30;29;
47705;PMS5003;33471;52.104;1.318;2023-04-29T03:55:46;36;31;
47705;PMS5003;33471;52.104;1.318;2023-04-29T03:58:14;34;32;
47705;PMS5003;33471;52.104;1.318;2023-04-29T04:00:41;33;30;
47705;PMS5003;33471;52.104;1.318;2023-04-29T04:03:09;38;38;
47705;PMS5003;33471;52.104;1.318;2023-04-29T04:05:36;44;38;
47705;PMS5003;33471;52.104;1.318;2023-04-29T04:08:03;37;34;
47705;PMS5003;33471;52.104;1.318;2023-04-29T04:10:31;29;28;
47705;PMS5003;33471;52.104;1.318;2023-04-29T04:12:58;30;30;
47705;PMS5003;33471;52.104;1.318;2023-04-29T04:15:25;40;37;
47705;PMS5003;33471;52.104;1.318;2023-04-29T04:17:52;37;34;
47705;PMS5003;33471;52.104;1.318;2023-04-29T04:20:19;40;36;
47705;PMS5003;33471;52.104;1.318;2023-04-29T04:22:47;31;29;
47705;PMS5003;33471;52.104;1.318;2023-04-29T04:25:14;39;37;
47705;PMS5003;33471;52.104;1.318;2023-04-29T04:27:41;37;35;
47705;PMS5003;33471;52.104;1.318;2023-04-29T04:30:08;34;34;
47705;PMS5003;33471;52.104;1.318;2023-04-29T04:32:36;36;33;
47705;PMS5003;33471;52.104;1.318;2023-04-29T04:35:04;33;32;
47705;PMS5003;33471;52.104;1.318;2023-04-29T04:37:31;29;28;
47705;PMS5003;33471;52.104;1.318;2023-04-29T04:39:58;39;36;
47705;PMS5003;33471;52.104;1.318;2023-04-29T04:42:25;27;27;
47705;PMS5003;33471;52.104;1.318;2023-04-29T04:44:52;39;37;
47705;PMS5003;33471;52.104;1.318;2023-04-29T04:47:20;34;33;
47705;PMS5003;33471;52.104;1.318;2023-04-29T04:49:47;35;34;
47705;PMS5003;33471;52.104;1.318;2023-04-29T04:52:14;30;30;
47705;PMS5003;33471;52.104;1.318;2023-04-29T04:54:43;37;33;
47705;PMS5003;33471;52.104;1.318;2023-04-29T04:57:11;32;29;
47705;PMS5003;33471;52.104;1.318;2023-04-29T04:59:38;30;29;
47705;PMS5003;33471;52.104;1.318;2023-04-29T05:02:05;23;23;
47705;PMS5003;33471;52.104;1.318;2023-04-29T05:04:32;43;36;
47705;PMS5003;33471;52.104;1.318;2023-04-29T05:07:00;36;34;
47705;PMS5003;33471;52.104;1.318;2023-04-29T05:09:27;27;26;
47705;PMS5003;33471;52.104;1.318;2023-04-29T05:11:54;34;32;
47705;PMS5003;33471;52.104;1.318;2023-04-29T05:14:22;30;30;
47705;PMS5003;33471;52.104;1.318;2023-04-29T05:16:49;33;29;
47705;PMS5003;33471;52.104;1.318;2023-04-29T05:19:17;37;30;
47705;PMS5003;33471;52.104;1.318;2023-04-29T05:21:44;32;30;
47705;PMS5003;33471;52.104;1.318;2023-04-29T05:24:11;33;27;
47705;PMS5003;33471;52.104;1.318;2023-04-29T05:26:38;39;32;
47705;PMS5003;33471;52.104;1.318;2023-04-29T05:29:05;31;30;
47705;PMS5003;33471;52.104;1.318;2023-04-29T05:31:33;26;26;
47705;PMS5003;33471;52.104;1.318;2023-04-29T05:34:00;36;35;
47705;PMS5003;33471;52.104;1.318;2023-04-29T05:36:27;30;25;
47705;PMS5003;33471;52.104;1.318;2023-04-29T05:38:54;31;30;
47705;PMS5003;33471;52.104;1.318;2023-04-29T05:41:21;32;26;
47705;PMS5003;33471;52.104;1.318;2023-04-29T05:43:48;29;26;
47705;PMS5003;33471;52.104;1.318;2023-04-29T05:46:15;28;25;
47705;PMS5003;33471;52.104;1.318;2023-04-29T05:48:42;32;28;
47705;PMS5003;33471;52.104;1.318;2023-04-29T05:51:10;21;20;
47705;PMS5003;33471;52.104;1.318;2023-04-29T05:53:38;34;30;
47705;PMS5003;33471;52.104;1.318;2023-04-29T05:56:05;34;32;
47705;PMS5003;33471;52.104;1.318;2023-04-29T05:58:32;30;26;
47705;PMS5003;33471;52.104;1.318;2023-04-29T06:00:59;32;30;
47705;PMS5003;33471;52.104;1.318;2023-04-29T06:03:26;28;24;
47705;PMS5003;33471;52.104;1.318;2023-04-29T06:05:53;39;33;
47705;PMS5003;33471;52.104;1.318;2023-04-29T06:08:21;36;33;
47705;PMS5003;33471;52.104;1.318;2023-04-29T06:10:48;28;28;
47705;PMS5003;33471;52.104;1.318;2023-04-29T06:13:15;38;37;
47705;PMS5003;33471;52.104;1.318;2023-04-29T06:15:42;30;29;
47705;PMS5003;33471;52.104;1.318;2023-04-29T06:18:09;30;25;
47705;PMS5003;33471;52.104;1.318;2023-04-29T06:20:37;30;30;
47705;PMS5003;33471;52.104;1.318;2023-04-29T06:23:04;28;27;
47705;PMS5003;33471;52.104;1.318;2023-04-29T06:25:31;28;27;
47705;PMS5003;33471;52.104;1.318;2023-04-29T06:27:59;32;29;
47705;PMS5003;33471;52.104;1.318;2023-04-29T06:30:25;32;28;
47705;PMS5003;33471;52.104;1.318;2023-04-29T06:32:53;29;28;
47705;PMS5003;33471;52.104;1.318;2023-04-29T06:35:20;27;23;
47705;PMS5003;33471;52.104;1.318;2023-04-29T06:37:47;28;27;
47705;PMS5003;33471;52.104;1.318;2023-04-29T06:40:14;29;27;
47705;PMS5003;33471;52.104;1.318;2023-04-29T06:42:41;22;22;
47705;PMS5003;33471;52.104;1.318;2023-04-29T06:45:09;34;29;
47705;PMS5003;33471;52.104;1.318;2023-04-29T06:47:36;29;25;
47705;PMS5003;33471;52.104;1.318;2023-04-29T06:50:04;32;30;
47705;PMS5003;33471;52.104;1.318;2023-04-29T06:52:32;31;31;
47705;PMS5003;33471;52.104;1.318;2023-04-29T06:54:59;30;24;
47705;PMS5003;33471;52.104;1.318;2023-04-29T06:57:26;30;26;
47705;PMS5003;33471;52.104;1.318;2023-04-29T06:59:54;34;32;
47705;PMS5003;33471;52.104;1.318;2023-04-29T07:02:21;25;21;
47705;PMS5003;33471;52.104;1.318;2023-04-29T07:04:48;28;25;
47705;PMS5003;33471;52.104;1.318;2023-04-29T07:07:15;33;29;
47705;PMS5003;33471;52.104;1.318;2023-04-29T07:09:42;34;28;
47705;PMS5003;33471;52.104;1.318;2023-04-29T07:12:10;33;31;
47705;PMS5003;33471;52.104;1.318;2023-04-29T07:14:36;29;29;
47705;PMS5003;33471;52.104;1.318;2023-04-29T07:17:04;29;29;
47705;PMS5003;33471;52.104;1.318;2023-04-29T07:19:31;30;29;
47705;PMS5003;33471;52.104;1.318;2023-04-29T07:21:59;32;28;
47705;PMS5003;33471;52.104;1.318;2023-04-29T07:24:25;34;34;
47705;PMS5003;33471;52.104;1.318;2023-04-29T07:26:52;31;29;
47705;PMS5003;33471;52.104;1.318;2023-04-29T07:29:19;31;31;
47705;PMS5003;33471;52.104;1.318;2023-04-29T07:31:47;48;33;
47705;PMS5003;33471;52.104;1.318;2023-04-29T07:34:14;26;26;
47705;PMS5003;33471;52.104;1.318;2023-04-29T07:36:41;25;24;
47705;PMS5003;33471;52.104;1.318;2023-04-29T07:39:08;29;27;
47705;PMS5003;33471;52.104;1.318;2023-04-29T07:41:35;37;29;
47705;PMS5003;33471;52.104;1.318;2023-04-29T07:44:02;23;22;
47705;PMS5003;33471;52.104;1.318;2023-04-29T07:46:30;33;30;
47705;PMS5003;33471;52.104;1.318;2023-04-29T07:48:57;32;30;
47705;PMS5003;33471;52.104;1.318;2023-04-29T07:51:24;23;21;
47705;PMS5003;33471;52.104;1.318;2023-04-29T07:53:51;28;24;
47705;PMS5003;33471;52.104;1.318;2023-04-29T07:56:19;24;22;
47705;PMS5003;33471;52.104;1.318;2023-04-29T07:58:46;35;32;
47705;PMS5003;33471;52.104;1.318;2023-04-29T08:01:13;33;30;
47705;PMS5003;33471;52.104;1.318;2023-04-29T08:03:41;34;32;
47705;PMS5003;33471;52.104;1.318;2023-04-29T08:06:08;27;25;
47705;PMS5003;33471;52.104;1.318;2023-04-29T08:08:35;39;37;
47705;PMS5003;33471;52.104;1.318;2023-04-29T08:11:03;33;29;
47705;PMS5003;33471;52.104;1.318;2023-04-29T08:13:30;27;26;
47705;PMS5003;33471;52.104;1.318;2023-04-29T08:15:57;28;27;
47705;PMS5003;33471;52.104;1.318;2023-04-29T08:18:25;20;20;
47705;PMS5003;33471;52.104;1.318;2023-04-29T08:20:52;21;21;
47705;PMS5003;33471;52.104;1.318;2023-04-29T08:23:20;25;23;
47705;PMS5003;33471;52.104;1.318;2023-04-29T08:25:48;27;25;
47705;PMS5003;33471;52.104;1.318;2023-04-29T08:28:15;24;21;
47705;PMS5003;33471;52.104;1.318;2023-04-29T08:30:42;26;24;
47705;PMS5003;33471;52.104;1.318;2023-04-29T08:33:09;28;26;
47705;PMS5003;33471;52.104;1.318;2023-04-29T08:35:37;21;20;
47705;PMS5003;33471;52.104;1.318;2023-04-29T08:38:04;27;25;
47705;PMS5003;33471;52.104;1.318;2023-04-29T08:40:33;31;30;
47705;PMS5003;33471;52.104;1.318;2023-04-29T08:43:00;30;28;
47705;PMS5003;33471;52.104;1.318;2023-04-29T08:45:29;26;23;
47705;PMS5003;33471;52.104;1.318;2023-04-29T08:47:59;33;27;
47705;PMS5003;33471;52.104;1.318;2023-04-29T08:50:28;25;24;
47705;PMS5003;33471;52.104;1.318;2023-04-29T08:52:56;25;22;
47705;PMS5003;33471;52.104;1.318;2023-04-29T08:55:24;25;25;
47705;PMS5003;33471;52.104;1.318;2023-04-29T08:57:51;25;22;
47705;PMS5003;33471;52.104;1.318;2023-04-29T09:00:20;24;23;
47705;PMS5003;33471;52.104;1.318;2023-04-29T09:02:50;27;26;
47705;PMS5003;33471;52.104;1.318;2023-04-29T09:05:21;20;20;
47705;PMS5003;33471;52.104;1.318;2023-04-29T09:07:49;23;22;
47705;PMS5003;33471;52.104;1.318;2023-04-29T09:10:18;19;18;
47705;PMS5003;33471;52.104;1.318;2023-04-29T09:12:46;27;27;
47705;PMS5003;33471;52.104;1.318;2023-04-29T09:15:13;22;20;
47705;PMS5003;33471;52.104;1.318;2023-04-29T09:17:41;27;26;
47705;PMS5003;33471;52.104;1.318;2023-04-29T09:20:26;21;20;
47705;PMS5003;33471;52.104;1.318;2023-04-29T09:22:54;24;24;
47705;PMS5003;33471;52.104;1.318;2023-04-29T09:25:23;23;21;
47705;PMS5003;33471;52.104;1.318;2023-04-29T09:27:50;20;20;
47705;PMS5003;33471;52.104;1.318;2023-04-29T09:30:17;22;22;
47705;PMS5003;33471;52.104;1.318;2023-04-29T09:32:44;22;22;
47705;PMS5003;33471;52.104;1.318;2023-04-29T09:35:27;19;18;
47705;PMS5003;33471;52.104;1.318;2023-04-29T09:38:06;18;18;
47705;PMS5003;33471;52.104;1.318;2023-04-29T09:40:35;26;23;
47705;PMS5003;33471;52.104;1.318;2023-04-29T09:43:01;23;23;
47705;PMS5003;33471;52.104;1.318;2023-04-29T09:45:32;28;27;
47705;PMS5003;33471;52.104;1.318;2023-04-29T09:48:01;26;23;
47705;PMS5003;33471;52.104;1.318;2023-04-29T09:50:28;29;26;
47705;PMS5003;33471;52.104;1.318;2023-04-29T09:52:56;15;15;
47705;PMS5003;33471;52.104;1.318;2023-04-29T09:55:23;28;25;
47705;PMS5003;33471;52.104;1.318;2023-04-29T09:57:51;20;20;
47705;PMS5003;33471;52.104;1.318;2023-04-29T10:00:19;22;20;
47705;PMS5003;33471;52.104;1.318;2023-04-29T10:02:47;17;17;
47705;PMS5003;33471;52.104;1.318;2023-04-29T10:05:15;26;25;
47705;PMS5003;33471;52.104;1.318;2023-04-29T10:07:43;24;21;
47705;PMS5003;33471;52.104;1.318;2023-04-29T10:10:12;23;22;
47705;PMS5003;33471;52.104;1.318;2023-04-29T10:12:40;26;23;
47705;PMS5003;33471;52.104;1.318;2023-04-29T10:15:09;17;17;
47705;PMS5003;33471;52.104;1.318;2023-04-29T10:17:45;26;24;
47705;PMS5003;33471;52.104;1.318;2023-04-29T10:20:20;28;22;
47705;PMS5003;33471;52.104;1.318;2023-04-29T10:22:48;20;16;
47705;PMS5003;33471;52.104;1.318;2023-04-29T10:25:20;21;20;
47705;PMS5003;33471;52.104;1.318;2023-04-29T10:27:49;19;19;
47705;PMS5003;33471;52.104;1.318;2023-04-29T10:30:18;19;19;
47705;PMS5003;33471;52.104;1.318;2023-04-29T10:32:47;24;22;
47705;PMS5003;33471;52.104;1.318;2023-04-29T10:35:17;23;20;
47705;PMS5003;33471;52.104;1.318;2023-04-29T10:37:45;25;23;
47705;PMS5003;33471;52.104;1.318;2023-04-29T10:40:14;23;23;
47705;PMS5003;33471;52.104;1.318;2023-04-29T10:42:44;19;17;
47705;PMS5003;33471;52.104;1.318;2023-04-29T10:45:20;22;21;
47705;PMS5003;33471;52.104;1.318;2023-04-29T10:48:21;18;16;
47705;PMS5003;33471;52.104;1.318;2023-04-29T10:51:04;15;14;
47705;PMS5003;33471;52.104;1.318;2023-04-29T10:53:31;21;19;
47705;PMS5003;33471;52.104;1.318;2023-04-29T10:56:02;21;19;
47705;PMS5003;33471;52.104;1.318;2023-04-29T10:58:33;19;16;
47705;PMS5003;33471;52.104;1.318;2023-04-29T11:01:07;18;15;
47705;PMS5003;33471;52.104;1.318;2023-04-29T11:03:44;20;17;
47705;PMS5003;33471;52.104;1.318;2023-04-29T11:06:13;14;14;
47705;PMS5003;33471;52.104;1.318;2023-04-29T11:08:40;18;17;
47705;PMS5003;33471;52.104;1.318;2023-04-29T11:11:08;28;21;
47705;PMS5003;33471;52.104;1.318;2023-04-29T11:13:37;18;17;
47705;PMS5003;33471;52.104;1.318;2023-04-29T11:16:05;23;21;
47705;PMS5003;33471;52.104;1.318;2023-04-29T11:18:34;19;17;
47705;PMS5003;33471;52.104;1.318;2023-04-29T11:21:17;19;18;
47705;PMS5003;33471;52.104;1.318;2023-04-29T11:23:45;19;16;
47705;PMS5003;33471;52.104;1.318;2023-04-29T11:26:13;15;13;
47705;PMS5003;33471;52.104;1.318;2023-04-29T11:28:41;21;21;
47705;PMS5003;33471;52.104;1.318;2023-04-29T11:31:09;17;16;
47705;PMS5003;33471;52.104;1.318;2023-04-29T11:33:36;18;18;
47705;PMS5003;33471;52.104;1.318;2023-04-29T11:36:04;15;13;
47705;PMS5003;33471;52.104;1.318;2023-04-29T11:38:32;23;21;
47705;PMS5003;33471;52.104;1.318;2023-04-29T11:40:59;15;15;
47705;PMS5003;33471;52.104;1.318;2023-04-29T11:43:26;16;16;
47705;PMS5003;33471;52.104;1.318;2023-04-29T11:45:53;13;13;
47705;PMS5003;33471;52.104;1.318;2023-04-29T11:48:21;19;19;
47705;PMS5003;33471;52.104;1.318;2023-04-29T11:50:50;13;12;
47705;PMS5003;33471;52.104;1.318;2023-04-29T11:53:19;18;18;
47705;PMS5003;33471;52.104;1.318;2023-04-29T11:55:47;24;19;
47705;PMS5003;33471;52.104;1.318;2023-04-29T11:58:14;15;15;
47705;PMS5003;33471;52.104;1.318;2023-04-29T12:00:41;15;15;
47705;PMS5003;33471;52.104;1.318;2023-04-29T12:03:12;15;15;
47705;PMS5003;33471;52.104;1.318;2023-04-29T12:05:44;15;15;
47705;PMS5003;33471;52.104;1.318;2023-04-29T12:08:11;17;17;
47705;PMS5003;33471;52.104;1.318;2023-04-29T12:10:38;21;21;
47705;PMS5003;33471;52.104;1.318;2023-04-29T12:13:06;13;12;
47705;PMS5003;33471;52.104;1.318;2023-04-29T12:15:33;21;21;
47705;PMS5003;33471;52.104;1.318;2023-04-29T12:18:01;19;17;
47705;PMS5003;33471;52.104;1.318;2023-04-29T12:20:28;22;21;
47705;PMS5003;33471;52.104;1.318;2023-04-29T12:22:56;19;17;
47705;PMS5003;33471;52.104;1.318;2023-04-29T12:25:35;16;16;
47705;PMS5003;33471;52.104;1.318;2023-04-29T12:28:03;22;22;
47705;PMS5003;33471;52.104;1.318;2023-04-29T12:30:33;23;19;
47705;PMS5003;33471;52.104;1.318;2023-04-29T12:33:01;24;24;
47705;PMS5003;33471;52.104;1.318;2023-04-29T12:35:28;25;25;
47705;PMS5003;33471;52.104;1.318;2023-04-29T12:37:56;23;21;
47705;PMS5003;33471;52.104;1.318;2023-04-29T12:40:24;23;21;
47705;PMS5003;33471;52.104;1.318;2023-04-29T12:42:52;18;18;
47705;PMS5003;33471;52.104;1.318;2023-04-29T12:45:28;26;23;
47705;PMS5003;33471;52.104;1.318;2023-04-29T12:47:56;19;19;
47705;PMS5003;33471;52.104;1.318;2023-04-29T12:50:28;18;18;
47705;PMS5003;33471;52.104;1.318;2023-04-29T12:52:57;19;19;
47705;PMS5003;33471;52.104;1.318;2023-04-29T12:55:24;24;24;
47705;PMS5003;33471;52.104;1.318;2023-04-29T12:57:51;25;22;
47705;PMS5003;33471;52.104;1.318;2023-04-29T13:00:18;18;16;
47705;PMS5003;33471;52.104;1.318;2023-04-29T13:02:45;20;19;
47705;PMS5003;33471;52.104;1.318;2023-04-29T13:05:13;28;27;
47705;PMS5003;33471;52.104;1.318;2023-04-29T13:07:40;15;15;
47705;PMS5003;33471;52.104;1.318;2023-04-29T13:10:08;17;16;
47705;PMS5003;33471;52.104;1.318;2023-04-29T13:12:36;18;18;
47705;PMS5003;33471;52.104;1.318;2023-04-29T13:15:03;18;17;
47705;PMS5003;33471;52.104;1.318;2023-04-29T13:17:32;22;18;
47705;PMS5003;33471;52.104;1.318;2023-04-29T13:19:58;17;15;
47705;PMS5003;33471;52.104;1.318;2023-04-29T13:22:26;18;16;
47705;PMS5003;33471;52.104;1.318;2023-04-29T13:24:53;22;22;
47705;PMS5003;33471;52.104;1.318;2023-04-29T13:27:21;21;19;
47705;PMS5003;33471;52.104;1.318;2023-04-29T13:29:48;24;21;
47705;PMS5003;33471;52.104;1.318;2023-04-29T13:32:15;30;27;
47705;PMS5003;33471;52.104;1.318;2023-04-29T13:34:42;23;23;
47705;PMS5003;33471;52.104;1.318;2023-04-29T13:37:10;18;18;
47705;PMS5003;33471;52.104;1.318;2023-04-29T13:39:37;22;22;
47705;PMS5003;33471;52.104;1.318;2023-04-29T13:42:04;22;22;
47705;PMS5003;33471;52.104;1.318;2023-04-29T13:44:31;30;25;
47705;PMS5003;33471;52.104;1.318;2023-04-29T13:46:59;24;23;
47705;PMS5003;33471;52.104;1.318;2023-04-29T13:49:26;22;22;
47705;PMS5003;33471;52.104;1.318;2023-04-29T13:51:53;23;22;
47705;PMS5003;33471;52.104;1.318;2023-04-29T13:54:20;17;15;
47705;PMS5003;33471;52.104;1.318;2023-04-29T13:56:47;20;17;
47705;PMS5003;33471;52.104;1.318;2023-04-29T13:59:14;20;19;
47705;PMS5003;33471;52.104;1.318;2023-04-29T14:01:41;21;21;
47705;PMS5003;33471;52.104;1.318;2023-04-29T14:04:08;23;22;
47705;PMS5003;33471;52.104;1.318;2023-04-29T14:06:36;17;14;
47705;PMS5003;33471;52.104;1.318;2023-04-29T14:09:03;17;13;
47705;PMS5003;33471;52.104;1.318;2023-04-29T14:11:30;19;16;
47705;PMS5003;33471;52.104;1.318;2023-04-29T14:13:57;20;18;
47705;PMS5003;33471;52.104;1.318;2023-04-29T14:16:24;16;13;
47705;PMS5003;33471;52.104;1.318;2023-04-29T14:18:51;20;17;
47705;PMS5003;33471;52.104;1.318;2023-04-29T14:21:18;12;12;
47705;PMS5003;33471;52.104;1.318;2023-04-29T14:23:45;15;12;
47705;PMS5003;33471;52.104;1.318;2023-04-29T14:26:12;15;15;
47705;PMS5003;33471;52.104;1.318;2023-04-29T14:28:39;22;19;
47705;PMS5003;33471;52.104;1.318;2023-04-29T14:31:07;17;14;
47705;PMS5003;33471;52.104;1.318;2023-04-29T14:33:34;19;17;
47705;PMS5003;33471;52.104;1.318;2023-04-29T14:36:01;17;17;
47705;PMS5003;33471;52.104;1.318;2023-04-29T14:38:28;17;17;
47705;PMS5003;33471;52.104;1.318;2023-04-29T14:40:55;16;14;
47705;PMS5003;33471;52.104;1.318;2023-04-29T14:43:23;17;17;
47705;PMS5003;33471;52.104;1.318;2023-04-29T14:45:50;13;11;
47705;PMS5003;33471;52.104;1.318;2023-04-29T14:48:17;20;19;
47705;PMS5003;33471;52.104;1.318;2023-04-29T14:50:44;15;15;
47705;PMS5003;33471;52.104;1.318;2023-04-29T14:53:11;19;19;
47705;PMS5003;33471;52.104;1.318;2023-04-29T14:55:39;13;13;
47705;PMS5003;33471;52.104;1.318;2023-04-29T14:58:06;16;16;
47705;PMS5003;33471;52.104;1.318;2023-04-29T15:00:33;11;11;
47705;PMS5003;33471;52.104;1.318;2023-04-29T15:03:00;13;11;
47705;PMS5003;33471;52.104;1.318;2023-04-29T15:05:28;13;9;
47705;PMS5003;33471;52.104;1.318;2023-04-29T15:07:55;15;14;
47705;PMS5003;33471;52.104;1.318;2023-04-29T15:10:22;12;12;
47705;PMS5003;33471;52.104;1.318;2023-04-29T15:12:49;12;11;
47705;PMS5003;33471;52.104;1.318;2023-04-29T15:15:16;14;14;
47705;PMS5003;33471;52.104;1.318;2023-04-29T15:17:44;16;16;
47705;PMS5003;33471;52.104;1.318;2023-04-29T15:20:11;16;13;
47705;PMS5003;33471;52.104;1.318;2023-04-29T15:22:38;11;11;
47705;PMS5003;33471;52.104;1.318;2023-04-29T15:25:06;12;12;
47705;PMS5003;33471;52.104;1.318;2023-04-29T15:27:34;15;14;
47705;PMS5003;33471;52.104;1.318;2023-04-29T15:30:03;17;15;
47705;PMS5003;33471;52.104;1.318;2023-04-29T15:32:31;15;11;
47705;PMS5003;33471;52.104;1.318;2023-04-29T15:34:58;17;14;
47705;PMS5003;33471;52.104;1.318;2023-04-29T15:37:26;13;13;
47705;PMS5003;33471;52.104;1.318;2023-04-29T15:39:54;13;13;
47705;PMS5003;33471;52.104;1.318;2023-04-29T15:42:21;15;15;
47705;PMS5003;33471;52.104;1.318;2023-04-29T15:44:48;10;9;
47705;PMS5003;33471;52.104;1.318;2023-04-29T15:47:16;11;11;
47705;PMS5003;33471;52.104;1.318;2023-04-29T15:49:43;11;11;
47705;PMS5003;33471;52.104;1.318;2023-04-29T15:52:11;12;12;
47705;PMS5003;33471;52.104;1.318;2023-04-29T15:54:38;15;13;
47705;PMS5003;33471;52.104;1.318;2023-04-29T15:57:04;14;12;
47705;PMS5003;33471;52.104;1.318;2023-04-29T15:59:31;14;14;
47705;PMS5003;33471;52.104;1.318;2023-04-29T16:01:58;12;11;
47705;PMS5003;33471;52.104;1.318;2023-04-29T16:04:25;13;13;
47705;PMS5003;33471;52.104;1.318;2023-04-29T16:06:52;15;13;
47705;PMS5003;33471;52.104;1.318;2023-04-29T16:09:19;13;12;
47705;PMS5003;33471;52.104;1.318;2023-04-29T16:11:46;13;13;
47705;PMS5003;33471;52.104;1.318;2023-04-29T16:14:13;15;14;
47705;PMS5003;33471;52.104;1.318;2023-04-29T16:16:40;15;13;
47705;PMS5003;33471;52.104;1.318;2023-04-29T16:19:07;17;16;
47705;PMS5003;33471;52.104;1.318;2023-04-29T16:21:34;12;12;
47705;PMS5003;33471;52.104;1.318;2023-04-29T16:24:02;14;12;